Time;durP1;ratioP1;P1;durP2;ratioP2;P2;SDS_P1;SDS_P2;PMS_P1;PMS_P2;Temp;Humidity;BMP_temperature;BMP_pressure;BME280_temperature;BME280_humidity;BME280_pressure;Samples;Min_cycle;Max_cycle;Signal;HPM_P1;HPM_P2
2022/11/14 00:01:20;;;;;;;54.72;33.42;;;;;;;19.74;63.13;99152.94;4781294;29;20132;-62
2022/11/14 00:04:28;;;;;;;63.58;35.65;;;;;;;19.62;66.28;99140.56;4782123;30;20051;-62
2022/11/14 00:07:28;;;;;;;63.13;37.97;;;;;;;19.04;67.48;99110.50;4774193;30;20195;-62
2022/11/14 00:10:36;;;;;;;66.50;37.53;;;;;;;18.79;69.30;99044.72;4763540;30;20066;-62
2022/11/14 00:13:36;;;;;;;58.40;34.90;;;;;;;18.48;70.21;99021.91;4768863;30;20546;-62
2022/11/14 00:16:50;;;;;;;58.00;33.53;;;;;;;18.14;71.67;99005.81;4764650;29;20807;-63
2022/11/14 00:19:58;;;;;;;55.20;32.65;;;;;;;18.16;72.55;99025.41;4767169;30;20071;-62
2022/11/14 00:23:05;;;;;;;57.67;34.08;;;;;;;18.49;71.16;99036.31;4772928;29;20775;-62
2022/11/14 00:26:13;;;;;;;54.33;33.10;;;;;;;17.90;72.05;99020.75;4773657;29;20225;-62
2022/11/14 00:29:14;;;;;;;53.47;33.35;;;;;;;18.09;72.50;99018.53;4777021;29;20423;-62
2022/11/14 00:32:22;;;;;;;55.42;34.15;;;;;;;17.67;73.13;98995.50;4772301;30;20147;-62
2022/11/14 00:35:22;;;;;;;49.75;32.20;;;;;;;17.72;72.82;98997.47;4775176;30;20081;-62
2022/11/14 00:38:30;;;;;;;55.13;31.40;;;;;;;18.28;72.82;99008.13;4766600;30;20062;-62
2022/11/14 00:41:30;;;;;;;48.95;28.00;;;;;;;17.52;72.67;99009.72;4781085;30;20061;-62
2022/11/14 00:44:38;;;;;;;40.58;24.30;;;;;;;17.17;73.27;99007.34;4781403;29;20223;-62
2022/11/14 00:47:38;;;;;;;42.15;24.30;;;;;;;17.60;72.76;99003.84;4781351;29;20062;-62
2022/11/14 00:50:46;;;;;;;34.28;21.08;;;;;;;17.59;71.45;99020.38;4781231;29;20074;-62
2022/11/14 00:53:46;;;;;;;26.88;17.05;;;;;;;17.70;70.92;99033.00;4781437;29;20074;-62
2022/11/14 00:56:53;;;;;;;32.10;17.48;;;;;;;17.41;70.71;99049.47;4781401;30;20066;-63
2022/11/14 01:00:00;;;;;;;24.35;15.45;;;;;;;17.72;70.17;99066.13;4781009;30;20058;-62
2022/11/14 01:03:00;;;;;;;25.77;15.27;;;;;;;18.02;69.19;99067.63;4780914;30;20120;-61
2022/11/14 01:06:14;;;;;;;22.30;12.98;;;;;;;18.09;68.25;99075.56;4762550;30;20170;-63
2022/11/14 01:09:16;;;;;;;16.95;10.90;;;;;;;18.06;67.25;99093.19;4763130;30;20048;-61
2022/11/14 01:12:23;;;;;;;24.33;12.02;;;;;;;18.59;69.46;99105.19;4764198;30;20078;-61
2022/11/14 01:15:24;;;;;;;17.75;11.80;;;;;;;18.27;67.55;99126.84;4777963;30;20074;-62
2022/11/14 01:18:39;;;;;;;21.02;11.23;;;;;;;18.32;68.07;99161.41;4781192;29;20047;-62
2022/11/14 01:21:33;;;;;;;26.77;14.20;;;;;;;18.63;68.38;99153.59;4780457;30;20135;-62
2022/11/14 01:24:41;;;;;;;31.05;16.70;;;;;;;18.56;67.03;99129.34;4780674;30;20070;-62
2022/11/14 01:27:41;;;;;;;32.80;17.60;;;;;;;18.18;67.56;99103.91;4780780;30;20151;-63
2022/11/14 01:30:49;;;;;;;34.53;16.90;;;;;;;17.70;68.50;99086.47;4780527;30;20097;-62
2022/11/14 01:33:58;;;;;;;31.63;16.38;;;;;;;17.91;68.54;99082.16;4780602;30;20797;-62
2022/11/14 01:36:59;;;;;;;31.88;15.95;;;;;;;17.90;67.93;99075.06;4779935;29;20248;-62
2022/11/14 01:40:06;;;;;;;24.83;14.57;;;;;;;17.75;68.48;99068.34;4777100;29;20222;-63
2022/11/14 01:43:16;;;;;;;26.10;16.23;;;;;;;18.00;67.84;99054.28;4772279;29;20059;-62
2022/11/14 01:46:43;;;;;;;29.67;15.20;;;;;;;18.03;68.01;99041.28;4773125;30;20070;-62
2022/11/14 01:49:47;;;;;;;29.70;13.80;;;;;;;18.11;67.26;99036.19;4778036;30;20067;-62
2022/11/14 01:52:54;;;;;;;23.13;12.82;;;;;;;17.94;67.41;99035.47;4779569;30;20051;-61
2022/11/14 01:56:05;;;;;;;22.02;11.73;;;;;;;18.19;66.02;99041.19;4779756;30;20178;-61
2022/11/14 01:59:19;;;;;;;24.80;9.68;;;;;;;18.27;64.97;99036.38;4779773;29;20077;-61
2022/11/14 02:02:27;;;;;;;19.95;9.77;;;;;;;18.68;63.64;99025.88;4778609;30;20201;-62
2022/11/14 02:05:35;;;;;;;15.88;9.32;;;;;;;18.63;63.33;99028.53;4762024;30;20218;-62
2022/11/14 02:08:30;;;;;;;15.25;9.00;;;;;;;18.95;62.67;99014.94;4767511;30;20082;-62
2022/11/14 02:11:42;;;;;;;19.10;8.20;;;;;;;18.94;62.22;99029.66;4778804;30;20097;-62
2022/11/14 02:14:52;;;;;;;13.73;8.38;;;;;;;19.08;61.62;99057.22;4776087;29;20122;-61
2022/11/14 02:17:52;;;;;;;14.32;8.60;;;;;;;19.25;61.18;99068.75;4797843;29;20065;-61
2022/11/14 02:20:59;;;;;;;13.85;7.45;;;;;;;19.50;60.48;99091.75;4779887;29;20051;-61
2022/11/14 02:23:59;;;;;;;20.27;10.15;;;;;;;19.49;60.70;99087.38;4780275;29;20067;-61
2022/11/14 02:27:08;;;;;;;22.90;11.60;;;;;;;19.31;61.16;99083.22;4775922;29;20079;-61
2022/11/14 02:30:12;;;;;;;22.15;12.02;;;;;;;19.01;62.46;99094.69;4779277;30;20063;-63
2022/11/14 02:33:21;;;;;;;17.08;9.98;;;;;;;18.99;63.12;99103.09;4771074;30;20519;-61
2022/11/14 02:36:29;;;;;;;16.33;10.52;;;;;;;18.70;63.78;99091.69;4761970;30;20087;-61
2022/11/14 02:39:36;;;;;;;17.15;10.73;;;;;;;18.73;63.79;99088.44;4775895;30;20119;-62
2022/11/14 02:42:37;;;;;;;17.77;11.32;;;;;;;18.78;64.29;99085.75;4777215;30;20074;-62
2022/11/14 02:45:44;;;;;;;18.20;11.30;;;;;;;18.82;63.59;99081.50;4777791;30;20065;-63
2022/11/14 02:48:45;;;;;;;20.25;11.43;;;;;;;18.72;63.19;99097.69;4767278;30;20204;-61
2022/11/14 02:51:52;;;;;;;18.67;11.32;;;;;;;19.25;62.80;99106.84;4782929;30;20097;-61
2022/11/14 02:54:52;;;;;;;21.05;11.10;;;;;;;19.39;62.16;99120.00;4782964;30;20392;-60
2022/11/14 02:57:59;;;;;;;17.35;10.43;;;;;;;19.27;62.50;99125.63;4783207;30;20059;-61
2022/11/14 03:00:59;;;;;;;18.75;11.43;;;;;;;19.70;62.31;99135.44;4783177;30;20623;-62
2022/11/14 03:04:19;;;;;;;28.27;12.05;;;;;;;19.17;62.25;99118.22;4782621;29;20070;-61
2022/11/14 03:07:26;;;;;;;18.63;10.00;;;;;;;19.43;61.96;99119.22;4782946;29;20147;-61
2022/11/14 03:10:28;;;;;;;15.15;9.95;;;;;;;19.30;62.13;99115.06;4783298;29;20060;-61
2022/11/14 03:13:35;;;;;;;17.80;9.90;;;;;;;19.42;61.71;99133.91;4783371;30;20074;-62
2022/11/14 03:16:37;;;;;;;13.93;8.23;;;;;;;19.88;60.71;99136.94;4783395;29;20144;-60
2022/11/14 03:19:44;;;;;;;18.25;9.52;;;;;;;19.82;60.54;99139.91;4780974;30;20068;-61
2022/11/14 03:22:45;;;;;;;13.15;8.45;;;;;;;19.73;61.00;99151.28;4770232;30;20066;-61
2022/11/14 03:25:53;;;;;;;15.80;8.55;;;;;;;20.24;61.02;99149.91;4780860;30;20107;-60
2022/11/14 03:29:00;;;;;;;16.88;9.27;;;;;;;19.82;62.01;99153.53;4764356;29;20082;-61
2022/11/14 03:32:07;;;;;;;12.07;8.88;;;;;;;19.97;61.66;99169.09;4779035;30;20078;-61
2022/11/14 03:35:15;;;;;;;14.43;8.70;;;;;;;20.03;60.96;99178.97;4773133;30;20174;-61
2022/11/14 03:38:16;;;;;;;14.38;9.25;;;;;;;19.98;60.92;99190.63;4764258;30;20079;-61
2022/11/14 03:41:24;;;;;;;21.48;9.60;;;;;;;20.41;59.93;99194.13;4764521;30;20059;-60
2022/11/14 03:44:25;;;;;;;14.95;9.38;;;;;;;20.46;59.64;99205.03;4773065;29;20065;-62
2022/11/14 03:47:32;;;;;;;21.63;9.57;;;;;;;21.51;57.46;99211.28;4764228;30;20070;-61
2022/11/14 03:50:41;;;;;;;15.18;9.68;;;;;;;21.66;56.95;99214.00;4777998;30;20135;-61
2022/11/14 03:53:42;;;;;;;15.63;9.30;;;;;;;21.18;57.57;99207.97;4782190;30;20063;-62
2022/11/14 03:56:50;;;;;;;14.10;9.07;;;;;;;21.60;56.28;99206.91;4764366;30;20086;-61
2022/11/14 03:59:50;;;;;;;15.95;10.10;;;;;;;21.99;55.04;99206.31;4765260;30;20070;-61
2022/11/14 04:02:58;;;;;;;20.58;11.20;;;;;;;21.36;56.31;99222.16;4781349;30;20070;-61
2022/11/14 04:05:58;;;;;;;18.02;10.65;;;;;;;21.62;55.88;99231.22;4780866;30;20062;-62
2022/11/14 04:09:05;;;;;;;19.23;10.88;;;;;;;21.88;56.38;99253.88;4780966;30;20086;-61
2022/11/14 04:12:05;;;;;;;19.13;11.65;;;;;;;21.55;55.68;99277.09;4780912;30;20055;-61
2022/11/14 04:15:14;;;;;;;25.98;12.18;;;;;;;21.73;56.08;99301.16;4758494;29;20272;-61
2022/11/14 04:18:16;;;;;;;21.98;11.98;;;;;;;21.95;55.82;99319.16;4773253;29;20055;-61
2022/11/14 04:21:23;;;;;;;19.08;11.50;;;;;;;21.80;56.33;99317.25;4769312;29;20406;-61
2022/11/14 04:24:31;;;;;;;23.58;12.07;;;;;;;21.64;59.40;99328.16;4778000;29;20681;-61
2022/11/14 04:27:38;;;;;;;19.25;11.30;;;;;;;20.97;58.81;99343.53;4773561;30;20074;-61
2022/11/14 04:30:38;;;;;;;22.83;11.57;;;;;;;21.26;58.89;99349.38;4769042;30;20615;-61
2022/11/14 04:33:45;;;;;;;20.13;11.25;;;;;;;21.05;62.27;99372.22;4751269;30;20063;-62
2022/11/14 04:36:52;;;;;;;21.63;12.02;;;;;;;20.74;61.95;99388.47;4758704;29;20062;-63
2022/11/14 04:39:57;;;;;;;26.45;13.15;;;;;;;20.85;63.63;99392.88;4781165;30;20066;-62
2022/11/14 04:43:04;;;;;;;17.73;10.48;;;;;;;20.60;65.48;99390.84;4779113;30;20066;-62
2022/11/14 04:46:04;;;;;;;27.10;12.35;;;;;;;20.69;66.91;99374.78;4762777;30;20087;-62
2022/11/14 04:49:11;;;;;;;24.88;12.88;;;;;;;20.48;68.49;99368.34;4772634;30;20070;-61
2022/11/14 04:52:12;;;;;;;20.55;12.50;;;;;;;20.43;67.28;99347.34;4781191;30;20055;-62
2022/11/14 04:55:19;;;;;;;28.05;12.57;;;;;;;20.10;68.43;99349.31;4780950;30;20592;-62
2022/11/14 04:58:27;;;;;;;24.27;13.38;;;;;;;20.30;68.41;99361.44;4780962;30;20061;-61
2022/11/14 05:01:29;;;;;;;29.10;11.15;;;;;;;20.59;66.86;99358.34;4780348;30;20062;-62
2022/11/14 05:04:37;;;;;;;20.83;12.85;;;;;;;21.42;64.22;99354.84;4780759;30;20203;-63
2022/11/14 05:07:37;;;;;;;26.90;14.02;;;;;;;20.29;66.55;99366.06;4774824;29;20123;-65
2022/11/14 05:10:45;;;;;;;25.75;14.27;;;;;;;20.15;67.56;99375.75;4777500;30;20059;-63
2022/11/14 05:13:46;;;;;;;26.45;14.90;;;;;;;19.86;68.76;99361.63;4779170;30;20506;-62
2022/11/14 05:16:59;;;;;;;31.52;15.90;;;;;;;19.99;68.51;99350.31;4760132;29;20923;-62
2022/11/14 05:20:06;;;;;;;32.70;16.60;;;;;;;20.72;67.05;99352.44;4778128;30;20059;-64
2022/11/14 05:23:17;;;;;;;29.02;15.65;;;;;;;20.00;66.23;99345.66;4765911;30;20143;-64
2022/11/14 05:26:18;;;;;;;27.65;16.58;;;;;;;20.52;64.04;99343.03;4764892;30;20055;-61
2022/11/14 05:29:25;;;;;;;32.70;16.85;;;;;;;20.92;65.39;99341.63;4779149;30;20134;-62
2022/11/14 05:32:33;;;;;;;34.20;17.98;;;;;;;20.37;65.33;99339.38;4780147;30;20067;-65
2022/11/14 05:35:34;;;;;;;33.63;15.93;;;;;;;20.16;66.57;99342.00;4778683;30;20052;-63
2022/11/14 05:38:43;;;;;;;29.92;16.67;;;;;;;20.06;68.18;99342.75;4778410;30;20167;-64
2022/11/14 05:41:50;;;;;;;31.92;16.85;;;;;;;20.20;68.71;99336.84;4773375;30;20204;-64
2022/11/14 05:44:57;;;;;;;28.20;17.17;;;;;;;20.50;68.47;99328.84;4775574;30;20072;-64
2022/11/14 05:47:58;;;;;;;25.10;16.13;;;;;;;20.45;68.52;99320.63;4762579;30;20062;-65
2022/11/14 05:51:06;;;;;;;25.08;15.48;;;;;;;20.54;69.03;99323.69;4772884;30;20070;-63
2022/11/14 05:54:07;;;;;;;19.83;13.02;;;;;;;20.47;67.06;99325.81;4777515;30;20070;-63
2022/11/14 05:57:14;;;;;;;18.75;12.18;;;;;;;20.48;67.56;99325.56;4777983;30;20059;-64
2022/11/14 06:00:24;;;;;;;19.42;11.43;;;;;;;20.57;66.62;99327.78;4776853;30;20044;-63
2022/11/14 06:03:24;;;;;;;17.25;10.88;;;;;;;20.34;66.95;99322.47;4762706;30;20848;-64
2022/11/14 06:06:31;;;;;;;18.10;10.27;;;;;;;20.17;67.75;99321.81;4779458;29;20063;-64
2022/11/14 06:09:31;;;;;;;20.58;11.43;;;;;;;20.01;66.91;99322.81;4778522;30;20067;-64
2022/11/14 06:12:38;;;;;;;15.55;9.93;;;;;;;20.27;66.34;99321.06;4778601;30;20074;-66
2022/11/14 06:15:38;;;;;;;19.45;10.57;;;;;;;20.40;66.61;99323.31;4767798;30;20065;-63
2022/11/14 06:18:46;;;;;;;17.52;9.80;;;;;;;20.74;65.76;99325.72;4777935;29;20058;-65
2022/11/14 06:21:47;;;;;;;13.43;8.90;;;;;;;21.02;63.76;99308.09;4776052;29;20074;-63
2022/11/14 06:24:54;;;;;;;13.38;9.13;;;;;;;20.13;65.13;99305.16;4783118;30;20548;-62
2022/11/14 06:28:02;;;;;;;17.95;9.40;;;;;;;20.20;64.94;99302.22;4782840;29;20074;-62
2022/11/14 06:31:10;;;;;;;19.50;9.93;;;;;;;20.57;64.68;99298.59;4778834;30;20521;-64
2022/11/14 06:34:11;;;;;;;24.08;10.32;;;;;;;20.20;65.10;99298.69;4782284;30;20204;-65
2022/11/14 06:37:19;;;;;;;16.88;9.43;;;;;;;20.80;64.29;99283.72;4772881;30;20498;-64
2022/11/14 06:40:31;;;;;;;22.75;9.05;;;;;;;20.62;63.65;99281.50;4782060;30;20632;-64
2022/11/14 06:43:31;;;;;;;17.05;10.10;;;;;;;20.23;64.47;99274.44;4781971;30;20062;-64
2022/11/14 06:46:38;;;;;;;21.65;9.23;;;;;;;20.63;64.08;99267.56;4780897;30;20062;-64
2022/11/14 06:49:38;;;;;;;14.75;8.73;;;;;;;20.64;62.91;99262.97;4770367;30;20391;-64
2022/11/14 06:52:46;;;;;;;18.27;9.05;;;;;;;20.39;63.48;99253.53;4782658;30;20063;-64
2022/11/14 06:55:40;;;;;;;15.35;8.02;;;;;;;20.45;64.06;99255.19;4782877;30;20139;-64
2022/11/14 06:58:53;;;;;;;12.90;7.95;;;;;;;20.82;63.45;99237.91;4782941;30;20204;-64
2022/11/14 07:02:00;;;;;;;13.52;7.80;;;;;;;20.88;62.91;99231.41;4765128;30;20058;-63
2022/11/14 07:05:01;;;;;;;12.75;7.47;;;;;;;21.35;61.08;99218.63;4770965;30;20142;-64
2022/11/14 07:08:08;;;;;;;15.10;6.10;;;;;;;21.02;61.96;99193.50;4782867;30;20051;-64
2022/11/14 07:11:10;;;;;;;11.05;6.25;;;;;;;20.98;61.36;99192.41;4783154;30;20460;-64
2022/11/14 07:14:17;;;;;;;10.13;6.03;;;;;;;21.67;59.66;99188.31;4785830;29;20143;-65
2022/11/14 07:17:17;;;;;;;7.93;5.05;;;;;;;21.54;59.03;99191.63;4768082;29;20405;-64
2022/11/14 07:20:30;;;;;;;9.25;4.75;;;;;;;21.56;59.12;99189.44;4780784;30;20135;-64
2022/11/14 07:23:31;;;;;;;9.23;4.88;;;;;;;21.94;58.36;99184.44;4764519;30;20062;-65
2022/11/14 07:26:39;;;;;;;7.28;4.40;;;;;;;21.46;57.68;99178.53;4782136;30;20055;-67
2022/11/14 07:29:46;;;;;;;8.23;4.05;;;;;;;21.05;58.48;99176.56;4778787;30;20059;-65
2022/11/14 07:32:57;;;;;;;9.73;3.97;;;;;;;21.37;58.21;99171.94;4782825;29;20537;-65
2022/11/14 07:36:04;;;;;;;8.07;3.90;;;;;;;21.52;58.01;99182.06;4782578;30;20070;-65
2022/11/14 07:39:11;;;;;;;10.63;4.70;;;;;;;21.79;57.42;99179.03;4781182;29;20120;-65
2022/11/14 07:42:18;;;;;;;8.35;4.30;;;;;;;21.80;56.91;99180.63;4779767;29;20244;-66
2022/11/14 07:45:25;;;;;;;6.45;4.32;;;;;;;21.52;57.75;99185.63;4780950;29;20571;-66
2022/11/14 07:48:35;;;;;;;7.20;4.10;;;;;;;21.55;57.68;99185.03;4777797;29;20151;-66
2022/11/14 07:51:36;;;;;;;9.73;4.00;;;;;;;21.52;57.77;99190.25;4764488;30;20070;-65
2022/11/14 07:54:43;;;;;;;7.47;4.93;;;;;;;21.35;57.38;99188.59;4772063;30;20142;-65
2022/11/14 07:57:53;;;;;;;7.97;4.07;;;;;;;21.80;56.97;99176.00;4772061;29;20070;-65
2022/11/14 08:00:53;;;;;;;5.68;3.40;;;;;;;21.81;56.25;99165.91;4774862;30;20449;-65
2022/11/14 08:04:01;;;;;;;10.68;3.70;;;;;;;21.76;56.07;99161.25;4763499;29;20461;-65
2022/11/14 08:07:08;;;;;;;8.35;3.88;;;;;;;22.04;56.07;99154.34;4772416;30;20074;-66
2022/11/14 08:10:16;;;;;;;8.10;4.03;;;;;;;21.68;56.11;99148.97;4779360;30;20066;-66
2022/11/14 08:13:17;;;;;;;10.52;3.80;;;;;;;22.07;55.90;99151.06;4778376;30;20065;-66
2022/11/14 08:16:31;;;;;;;7.53;4.00;;;;;;;21.71;56.29;99147.63;4768821;30;20047;-68
2022/11/14 08:19:32;;;;;;;5.20;3.63;;;;;;;21.60;56.98;99144.09;4763578;30;20055;-66
2022/11/14 08:22:39;;;;;;;12.35;3.83;;;;;;;21.74;57.04;99146.25;4777695;29;20059;-66
2022/11/14 08:25:39;;;;;;;10.63;3.60;;;;;;;21.49;57.67;99148.72;4763199;30;20064;-66
2022/11/14 08:28:47;;;;;;;9.75;4.60;;;;;;;21.87;56.81;99132.00;4763825;30;20066;-66
2022/11/14 08:31:55;;;;;;;11.23;3.95;;;;;;;21.64;57.33;99134.25;4773758;30;20074;-66
2022/11/14 08:34:58;;;;;;;6.57;3.70;;;;;;;21.80;57.11;99126.84;4765972;30;20067;-64
2022/11/14 08:38:07;;;;;;;5.30;3.75;;;;;;;21.84;56.89;99130.66;4769909;30;20083;-66
2022/11/14 08:41:07;;;;;;;6.57;3.80;;;;;;;21.34;57.65;99131.53;4780335;30;20807;-65
2022/11/14 08:44:15;;;;;;;6.75;3.50;;;;;;;21.64;57.81;99131.50;4768264;30;20801;-66
2022/11/14 08:47:15;;;;;;;5.40;3.53;;;;;;;21.68;57.96;99132.59;4763172;30;20064;-68
2022/11/14 08:50:22;;;;;;;8.15;3.60;;;;;;;21.34;57.86;99128.78;4763528;30;20568;-70
2022/11/14 08:53:22;;;;;;;6.88;4.10;;;;;;;21.61;57.31;99121.16;4763008;30;20078;-70
2022/11/14 08:56:29;;;;;;;5.60;3.90;;;;;;;21.47;57.36;99106.41;4767339;30;20063;-67
2022/11/14 08:59:36;;;;;;;9.20;3.90;;;;;;;21.85;57.75;99090.47;4776169;29;20388;-69
2022/11/14 09:02:44;;;;;;;7.88;4.32;;;;;;;21.80;57.72;99093.22;4772669;30;20073;-68
2022/11/14 09:05:52;;;;;;;10.02;4.85;;;;;;;21.56;58.48;99093.03;4772468;30;20138;-73
2022/11/14 09:08:53;;;;;;;7.82;4.93;;;;;;;21.68;58.13;99101.72;4779069;30;20053;-70
2022/11/14 09:12:01;;;;;;;7.35;5.00;;;;;;;22.08;57.40;99098.00;4780594;30;20062;-69
2022/11/14 09:15:01;;;;;;;8.73;5.43;;;;;;;21.77;58.47;99099.25;4786876;29;20063;-68
2022/11/14 09:18:16;;;;;;;9.05;5.20;;;;;;;21.64;58.65;99100.66;4786923;29;20176;-65
2022/11/14 09:21:23;;;;;;;11.95;5.47;;;;;;;21.05;60.08;99085.69;4779797;30;20047;-71
2022/11/14 09:24:30;;;;;;;10.23;5.50;;;;;;;21.54;59.11;99089.75;4777897;30;20606;-71
2022/11/14 09:27:31;;;;;;;11.25;6.78;;;;;;;21.35;59.87;99092.22;4777942;30;20066;-71
2022/11/14 09:30:40;;;;;;;7.57;5.20;;;;;;;21.39;59.38;99085.94;4779155;30;20070;-70
2022/11/14 09:33:48;;;;;;;9.18;5.13;;;;;;;21.34;60.18;99085.13;4777555;30;20111;-71
2022/11/14 09:36:55;;;;;;;8.75;5.95;;;;;;;21.51;59.64;99080.19;4778777;30;20069;-70
2022/11/14 09:39:55;;;;;;;13.35;5.47;;;;;;;21.76;59.32;99089.41;4778256;30;20066;-69
2022/11/14 09:43:29;;;;;;;9.23;5.18;;;;;;;21.69;59.14;99082.34;4774568;30;20096;-71
2022/11/14 09:46:43;;;;;;;10.18;6.13;;;;;;;21.65;59.99;99085.91;4770705;30;20458;-71
2022/11/14 09:49:50;;;;;;;10.77;5.45;;;;;;;21.85;59.31;99085.00;4777527;30;20073;-70
2022/11/14 09:53:02;;;;;;;18.38;5.75;;;;;;;21.49;59.84;99090.56;4779109;30;20144;-71
2022/11/14 09:56:09;;;;;;;12.38;6.05;;;;;;;21.51;60.16;99077.47;4776360;30;20396;-72
2022/11/14 09:59:16;;;;;;;12.73;5.40;;;;;;;21.51;60.41;99077.47;4771093;30;20055;-70
2022/11/14 10:02:19;;;;;;;9.20;5.57;;;;;;;21.40;59.77;99076.66;4778556;30;20065;-70
2022/11/14 10:05:49;;;;;;;9.95;5.50;;;;;;;21.17;60.65;99069.88;4777204;30;20512;-73
2022/11/14 10:09:09;;;;;;;10.85;5.55;;;;;;;21.41;60.25;99075.53;4777928;30;20135;-69
2022/11/14 10:12:45;;;;;;;8.38;5.38;;;;;;;21.22;60.56;99072.56;4778534;30;20785;-70
2022/11/14 10:15:58;;;;;;;;;;;;;;;21.61;59.17;99093.00;4761898;30;20103;-71
2022/11/14 10:19:25;;;;;;;11.70;6.22;;;;;;;21.52;59.37;99091.94;4779262;30;19941;-71
2022/11/14 10:22:51;;;;;;;10.35;6.20;;;;;;;21.60;59.21;99080.47;4779077;30;20061;-72
2022/11/14 10:26:11;;;;;;;9.35;6.32;;;;;;;21.47;59.64;99068.19;4776169;29;20105;-70
2022/11/14 10:29:47;;;;;;;13.02;6.72;;;;;;;21.28;59.54;99066.00;4777320;30;20056;-69
2022/11/14 10:33:19;;;;;;;11.25;6.28;;;;;;;21.68;58.37;99058.03;4768707;30;20070;-72
2022/11/14 10:36:28;;;;;;;13.05;6.18;;;;;;;21.50;58.63;99052.06;4778339;30;20494;-68
2022/11/14 10:39:45;;;;;;;12.95;6.45;;;;;;;21.19;58.79;99050.47;4777488;30;20084;-67
2022/11/14 10:43:01;;;;;;;13.98;6.20;;;;;;;21.16;58.97;99051.84;4777225;29;20112;-68
2022/11/14 10:46:16;;;;;;;11.40;6.50;;;;;;;21.22;59.06;99061.66;4778574;30;20072;-67
2022/11/14 10:49:42;;;;;;;13.93;5.70;;;;;;;21.20;58.93;99058.38;4776722;30;20063;-68
2022/11/14 10:52:56;;;;;;;10.55;6.38;;;;;;;21.48;58.60;99045.25;4779190;30;20143;-68
2022/11/14 10:56:04;;;;;;;10.50;5.38;;;;;;;21.31;58.28;99045.53;4778048;30;20409;-69
2022/11/14 10:59:05;;;;;;;11.38;5.50;;;;;;;21.12;59.03;99056.22;4777958;30;20089;-68
2022/11/14 11:02:12;;;;;;;13.20;5.45;;;;;;;21.21;58.50;99037.34;4771547;30;20070;-67
2022/11/14 11:05:16;;;;;;;9.88;5.07;;;;;;;21.29;57.81;99045.00;4764369;30;20387;-68
2022/11/14 11:11:57;;;;;;;9.10;5.67;;;;;;;21.12;57.90;99032.47;4782484;30;20062;-69
2022/11/14 11:15:19;;;;;;;8.77;5.38;;;;;;;20.82;59.00;99038.78;4784551;29;20299;-70
2022/11/14 11:18:26;;;;;;;9.73;5.43;;;;;;;21.01;58.27;99032.75;4780323;29;20058;-68
2022/11/14 11:21:51;;;;;;;10.05;5.50;;;;;;;21.08;57.98;99036.84;4782121;30;20075;-69
2022/11/14 11:24:51;;;;;;;7.75;5.50;;;;;;;20.83;58.77;99034.97;4781893;30;20128;-69
2022/11/14 11:28:18;;;;;;;11.05;5.38;;;;;;;21.23;58.04;99040.66;4780359;29;20063;-69
2022/11/14 11:31:25;;;;;;;10.75;6.45;;;;;;;21.38;58.25;99045.25;4779697;30;20383;-69
2022/11/14 11:34:33;;;;;;;10.73;6.13;;;;;;;20.88;59.45;99045.88;4779146;30;20127;-69
2022/11/14 11:38:10;;;;;;;12.15;6.15;;;;;;;20.86;59.35;99044.50;4774024;30;20091;-70
2022/11/14 11:41:38;;;;;;;11.13;6.18;;;;;;;20.92;59.34;99029.75;4780848;30;20139;-69
2022/11/14 11:45:03;;;;;;;9.85;6.00;;;;;;;21.08;58.71;99041.50;4780017;30;20154;-70
2022/11/14 11:48:28;;;;;;;13.80;7.20;;;;;;;20.86;59.50;99047.22;4779040;30;20119;-70
2022/11/14 11:51:39;;;;;;;17.20;7.35;;;;;;;20.91;59.41;99039.88;4782073;30;20082;-69
2022/11/14 11:55:22;;;;;;;9.80;5.85;;;;;;;20.76;59.71;99037.16;4781824;30;20405;-69
2022/11/14 11:58:44;;;;;;;10.40;6.47;;;;;;;20.72;59.92;99038.78;4770822;30;20049;-69
2022/11/14 12:01:44;;;;;;;14.55;6.85;;;;;;;20.80;60.15;99038.22;4780827;30;20063;-68
2022/11/14 12:04:54;;;;;;;12.55;7.75;;;;;;;20.35;61.19;99042.56;4767856;30;20066;-67
2022/11/14 12:08:08;;;;;;;10.13;6.25;;;;;;;20.86;60.13;99039.84;4769912;30;20405;-68
2022/11/14 12:11:23;;;;;;;17.33;8.07;;;;;;;20.75;60.27;99035.53;4779212;30;20058;-67
2022/11/14 12:14:47;;;;;;;12.45;7.30;;;;;;;20.54;61.32;99037.41;4784917;29;20201;-65
2022/11/14 12:18:03;;;;;;;12.43;7.45;;;;;;;20.91;60.44;99044.50;4787671;29;20967;-64
2022/11/14 12:21:20;;;;;;;14.07;7.28;;;;;;;20.62;60.81;99042.34;4778735;30;20752;-67
2022/11/14 12:24:51;;;;;;;16.15;8.30;;;;;;;20.93;60.23;99047.78;4768270;30;20069;-66
2022/11/14 12:28:14;;;;;;;20.48;8.45;;;;;;;20.64;61.00;99040.16;4757013;30;20058;-65
2022/11/14 12:31:24;;;;;;;14.38;8.13;;;;;;;20.35;62.53;99037.09;4779650;30;20070;-66
2022/11/14 12:34:40;;;;;;;14.43;7.78;;;;;;;20.77;61.49;99041.53;4775389;29;20076;-66
2022/11/14 12:37:53;;;;;;;14.20;8.50;;;;;;;20.59;61.41;99047.47;4769990;30;20081;-66
2022/11/14 12:41:01;;;;;;;17.58;8.77;;;;;;;20.59;61.85;99047.47;4780974;30;20062;-63
2022/11/14 12:44:34;;;;;;;16.10;8.55;;;;;;;20.57;61.99;99052.38;4778653;29;20115;-63
2022/11/14 12:48:24;;;;;;;25.23;10.55;;;;;;;20.18;62.68;99055.56;4773512;30;20062;-64
2022/11/14 12:51:31;;;;;;;18.95;10.68;;;;;;;20.53;62.44;99058.38;4763896;30;20059;-63
2022/11/14 12:54:48;;;;;;;16.85;10.82;;;;;;;20.25;62.69;99065.13;4767704;30;20129;-63
2022/11/14 12:58:17;;;;;;;27.40;11.30;;;;;;;20.61;62.60;99073.41;4777497;30;20478;-63
2022/11/14 13:01:24;;;;;;;20.10;10.77;;;;;;;20.75;61.73;99079.16;4776004;30;20649;-64
2022/11/14 13:04:49;;;;;;;23.42;11.73;;;;;;;20.68;62.46;99084.06;4778765;30;20129;-65
2022/11/14 13:08:29;;;;;;;19.33;11.30;;;;;;;20.71;63.08;99095.25;4777850;30;20058;-65
2022/11/14 13:22:39;;;;;;;25.67;11.93;;;;;;;20.19;63.26;99100.81;4445093;30;10000054;-64
2022/11/14 13:25:39;;;;;;;23.15;11.75;;;;;;;20.09;63.85;99112.50;4775743;30;20521;-63
2022/11/14 13:28:48;;;;;;;24.52;12.75;;;;;;;20.12;63.65;99120.16;4764186;29;20138;-63
2022/11/14 13:31:52;;;;;;;26.48;11.43;;;;;;;20.46;63.55;99120.50;4775822;29;20047;-63
2022/11/14 13:35:04;;;;;;;25.38;12.63;;;;;;;20.54;63.88;99120.00;4766211;30;20116;-65
2022/11/14 13:38:39;;;;;;;21.30;11.48;;;;;;;20.52;63.89;99130.38;4775730;30;20499;-62
2022/11/14 13:42:09;;;;;;;27.05;11.32;;;;;;;20.40;64.14;99134.41;4776403;30;20078;-66
2022/11/14 13:45:52;;;;;;;23.42;11.98;;;;;;;20.36;65.01;99141.50;4775779;30;20440;-65
2022/11/14 13:49:22;;;;;;;21.25;11.48;;;;;;;20.33;64.53;99140.13;4764615;30;20545;-63
2022/11/14 13:52:23;;;;;;;21.17;11.23;;;;;;;20.15;66.03;99138.69;4771699;29;20562;-63
2022/11/14 13:55:47;;;;;;;19.23;10.45;;;;;;;20.12;65.38;99141.97;4775552;30;20149;-62
2022/11/14 13:59:20;;;;;;;20.67;10.43;;;;;;;20.23;65.01;99154.50;4771512;30;20119;-61
2022/11/14 14:02:33;;;;;;;20.73;10.63;;;;;;;20.06;65.51;99162.91;4776879;30;20067;-61
2022/11/14 14:05:51;;;;;;;17.00;10.25;;;;;;;20.09;66.23;99173.25;4774744;30;20853;-62
2022/11/14 14:09:10;;;;;;;26.25;11.75;;;;;;;20.07;66.29;99177.34;4768099;30;20051;-64
2022/11/14 14:12:18;;;;;;;29.13;13.02;;;;;;;20.05;65.82;99174.88;4774474;30;20059;-64
2022/11/14 14:15:44;;;;;;;39.17;20.17;;;;;;;20.04;66.25;99184.13;4775185;29;20192;-62
2022/11/14 14:19:12;;;;;;;44.55;23.65;;;;;;;20.19;65.69;99175.22;4775856;30;20070;-67
2022/11/14 14:22:24;;;;;;;46.05;23.17;;;;;;;20.09;66.45;99186.88;4760887;30;20538;-62
2022/11/14 14:25:50;;;;;;;53.30;25.52;;;;;;;19.97;65.83;99197.19;4776146;29;20098;-67
2022/11/14 14:29:11;;;;;;;49.38;26.42;;;;;;;19.98;66.23;99195.28;4764016;30;20084;-61
2022/11/14 14:32:20;;;;;;;55.03;28.52;;;;;;;19.98;66.71;99195.28;4772998;30;20427;-60
2022/11/14 14:35:33;;;;;;;50.38;25.10;;;;;;;19.79;66.20;99208.50;4776291;30;20070;-61
2022/11/14 14:38:40;;;;;;;39.22;21.63;;;;;;;19.66;66.11;99207.88;4779750;30;20062;-61
2022/11/14 14:41:49;;;;;;;46.72;22.73;;;;;;;19.87;66.00;99211.56;4763598;29;20078;-61
2022/11/14 14:44:56;;;;;;;38.00;19.90;;;;;;;19.15;67.74;99210.16;4783206;30;20120;-60
2022/11/14 14:48:05;;;;;;;38.95;18.52;;;;;;;19.62;66.99;99219.50;4783001;30;20065;-61
2022/11/14 14:51:20;;;;;;;29.25;16.05;;;;;;;19.69;66.65;99231.81;4780086;30;20055;-60